sensor_id;sensor_type;location;lat;lon;timestamp;pressure;altitude;pressure_sealevel;temperature;humidity
57668;BME280;43499;52.366;12.912;2024-03-08T00:00:46;102061.06;;;3.80;62.96
57668;BME280;43499;52.366;12.912;2024-03-08T00:01:47;102055.47;;;3.77;63.16
57668;BME280;43499;52.366;12.912;2024-03-08T00:02:48;102057.88;;;3.75;63.17
57668;BME280;43499;52.366;12.912;2024-03-08T00:03:51;102058.59;;;3.74;63.71
57668;BME280;43499;52.366;12.912;2024-03-08T00:04:52;102049.38;;;3.83;63.10
57668;BME280;43499;52.366;12.912;2024-03-08T00:05:53;102055.72;;;3.85;63.26
57668;BME280;43499;52.366;12.912;2024-03-08T00:06:54;102057.28;;;3.91;63.25
57668;BME280;43499;52.366;12.912;2024-03-08T00:07:55;102053.16;;;3.93;62.93
57668;BME280;43499;52.366;12.912;2024-03-08T00:08:56;102047.97;;;3.93;62.77
57668;BME280;43499;52.366;12.912;2024-03-08T00:09:56;102055.25;;;3.95;62.65
57668;BME280;43499;52.366;12.912;2024-03-08T00:10:57;102056.47;;;3.84;62.90
57668;BME280;43499;52.366;12.912;2024-03-08T00:11:58;102051.25;;;3.84;63.05
57668;BME280;43499;52.366;12.912;2024-03-08T00:12:59;102049.78;;;3.86;62.95
57668;BME280;43499;52.366;12.912;2024-03-08T00:14:00;102047.38;;;3.88;62.92
57668;BME280;43499;52.366;12.912;2024-03-08T00:15:01;102046.16;;;3.72;62.99
57668;BME280;43499;52.366;12.912;2024-03-08T00:16:02;102051.34;;;3.72;63.11
57668;BME280;43499;52.366;12.912;2024-03-08T00:17:03;102046.94;;;3.78;63.20
57668;BME280;43499;52.366;12.912;2024-03-08T00:18:04;102052.84;;;3.77;63.30
57668;BME280;43499;52.366;12.912;2024-03-08T00:19:04;102050.25;;;3.77;63.22
57668;BME280;43499;52.366;12.912;2024-03-08T00:20:06;102046.53;;;3.75;63.06
57668;BME280;43499;52.366;12.912;2024-03-08T00:21:09;102049.94;;;3.81;62.92
57668;BME280;43499;52.366;12.912;2024-03-08T00:22:10;102049.34;;;3.76;63.24
57668;BME280;43499;52.366;12.912;2024-03-08T00:23:12;102052.13;;;3.78;63.07
57668;BME280;43499;52.366;12.912;2024-03-08T00:24:12;102048.59;;;3.77;63.12
57668;BME280;43499;52.366;12.912;2024-03-08T00:25:13;102045.59;;;3.74;63.01
57668;BME280;43499;52.366;12.912;2024-03-08T00:26:15;102044.88;;;3.75;63.24
57668;BME280;43499;52.366;12.912;2024-03-08T00:27:15;102044.28;;;3.70;62.88
57668;BME280;43499;52.366;12.912;2024-03-08T00:28:16;102046.28;;;3.66;62.96
57668;BME280;43499;52.366;12.912;2024-03-08T00:29:19;102046.78;;;3.63;62.95
57668;BME280;43499;52.366;12.912;2024-03-08T00:30:20;102044.41;;;3.65;63.02
57668;BME280;43499;52.366;12.912;2024-03-08T00:31:21;102049.34;;;3.56;63.23
57668;BME280;43499;52.366;12.912;2024-03-08T00:32:22;102042.13;;;3.61;63.25
57668;BME280;43499;52.366;12.912;2024-03-08T00:33:25;102050.28;;;3.57;63.48
57668;BME280;43499;52.366;12.912;2024-03-08T00:34:28;102046.19;;;3.59;63.50
57668;BME280;43499;52.366;12.912;2024-03-08T00:35:28;102039.03;;;3.43;63.84
57668;BME280;43499;52.366;12.912;2024-03-08T00:36:29;102045.81;;;3.55;63.38
57668;BME280;43499;52.366;12.912;2024-03-08T00:37:30;102045.34;;;3.65;63.42
57668;BME280;43499;52.366;12.912;2024-03-08T00:38:31;102039.63;;;3.68;63.09
57668;BME280;43499;52.366;12.912;2024-03-08T00:39:32;102046.19;;;3.59;63.04
57668;BME280;43499;52.366;12.912;2024-03-08T00:40:33;102051.25;;;3.64;63.21
57668;BME280;43499;52.366;12.912;2024-03-08T00:41:34;102042.88;;;3.60;63.38
57668;BME280;43499;52.366;12.912;2024-03-08T00:42:35;102044.69;;;3.53;63.67
57668;BME280;43499;52.366;12.912;2024-03-08T00:43:36;102040.34;;;3.47;63.52
57668;BME280;43499;52.366;12.912;2024-03-08T00:44:36;102039.09;;;3.50;63.88
57668;BME280;43499;52.366;12.912;2024-03-08T00:45:38;102045.34;;;3.45;63.65
57668;BME280;43499;52.366;12.912;2024-03-08T00:46:39;102050.41;;;3.31;63.78
57668;BME280;43499;52.366;12.912;2024-03-08T00:47:40;102044.50;;;3.32;64.07
57668;BME280;43499;52.366;12.912;2024-03-08T00:48:42;102048.16;;;3.47;63.90
57668;BME280;43499;52.366;12.912;2024-03-08T00:49:44;102044.13;;;3.36;64.04
57668;BME280;43499;52.366;12.912;2024-03-08T00:50:45;102042.50;;;3.36;64.04
57668;BME280;43499;52.366;12.912;2024-03-08T00:51:46;102038.28;;;3.44;64.51
57668;BME280;43499;52.366;12.912;2024-03-08T00:52:47;102045.28;;;3.38;64.02
57668;BME280;43499;52.366;12.912;2024-03-08T00:53:47;102048.06;;;3.39;64.23
57668;BME280;43499;52.366;12.912;2024-03-08T00:54:48;102038.59;;;3.20;64.37
57668;BME280;43499;52.366;12.912;2024-03-08T00:55:49;102042.94;;;3.27;64.99
57668;BME280;43499;52.366;12.912;2024-03-08T00:56:50;102039.28;;;3.32;64.58
57668;BME280;43499;52.366;12.912;2024-03-08T00:57:51;102043.41;;;3.37;64.21
57668;BME280;43499;52.366;12.912;2024-03-08T00:58:54;102047.69;;;3.36;64.46
57668;BME280;43499;52.366;12.912;2024-03-08T00:59:55;102042.63;;;3.31;65.13
57668;BME280;43499;52.366;12.912;2024-03-08T01:00:56;102042.94;;;3.27;65.14
57668;BME280;43499;52.366;12.912;2024-03-08T01:01:58;102033.41;;;3.20;64.96
57668;BME280;43499;52.366;12.912;2024-03-08T01:03:00;102036.41;;;3.23;65.17
57668;BME280;43499;52.366;12.912;2024-03-08T01:04:01;102039.19;;;3.24;65.23
57668;BME280;43499;52.366;12.912;2024-03-08T01:05:02;102034.81;;;3.31;64.92
57668;BME280;43499;52.366;12.912;2024-03-08T01:06:04;102033.88;;;3.30;64.86
57668;BME280;43499;52.366;12.912;2024-03-08T01:07:05;102032.00;;;3.29;64.56
57668;BME280;43499;52.366;12.912;2024-03-08T01:08:06;102030.75;;;3.33;64.90
57668;BME280;43499;52.366;12.912;2024-03-08T01:09:08;102025.47;;;3.26;65.50
57668;BME280;43499;52.366;12.912;2024-03-08T01:10:10;102020.50;;;3.27;65.17
57668;BME280;43499;52.366;12.912;2024-03-08T01:11:12;102030.13;;;3.28;65.29
57668;BME280;43499;52.366;12.912;2024-03-08T01:12:13;102029.88;;;3.19;64.99
57668;BME280;43499;52.366;12.912;2024-03-08T01:13:15;102026.94;;;3.23;65.22
57668;BME280;43499;52.366;12.912;2024-03-08T01:14:16;102022.56;;;3.30;64.98
57668;BME280;43499;52.366;12.912;2024-03-08T01:15:17;102020.81;;;3.23;65.32
57668;BME280;43499;52.366;12.912;2024-03-08T01:16:18;102023.22;;;3.21;65.14
57668;BME280;43499;52.366;12.912;2024-03-08T01:17:20;102025.47;;;3.26;65.21
57668;BME280;43499;52.366;12.912;2024-03-08T01:18:21;102023.47;;;3.10;65.46
57668;BME280;43499;52.366;12.912;2024-03-08T01:19:22;102023.97;;;3.07;65.48
57668;BME280;43499;52.366;12.912;2024-03-08T01:20:24;102028.16;;;3.00;65.87
57668;BME280;43499;52.366;12.912;2024-03-08T01:21:25;102027.25;;;2.99;65.54
57668;BME280;43499;52.366;12.912;2024-03-08T01:22:26;102019.44;;;2.99;65.65
57668;BME280;43499;52.366;12.912;2024-03-08T01:23:28;102014.91;;;2.91;65.35
57668;BME280;43499;52.366;12.912;2024-03-08T01:24:30;101988.06;;;2.77;65.86
57668;BME280;43499;52.366;12.912;2024-03-08T01:25:31;102023.75;;;2.86;66.32
57668;BME280;43499;52.366;12.912;2024-03-08T01:26:32;102012.22;;;2.84;66.46
57668;BME280;43499;52.366;12.912;2024-03-08T01:27:34;102013.06;;;2.90;66.47
57668;BME280;43499;52.366;12.912;2024-03-08T01:28:36;102011.84;;;2.81;66.37
57668;BME280;43499;52.366;12.912;2024-03-08T01:29:37;102021.50;;;2.82;66.80
57668;BME280;43499;52.366;12.912;2024-03-08T01:30:38;102009.97;;;2.80;66.81
57668;BME280;43499;52.366;12.912;2024-03-08T01:31:39;102010.16;;;2.81;66.70
57668;BME280;43499;52.366;12.912;2024-03-08T01:32:40;102008.28;;;2.80;66.84
57668;BME280;43499;52.366;12.912;2024-03-08T01:33:41;102011.97;;;2.75;66.98
57668;BME280;43499;52.366;12.912;2024-03-08T01:34:42;102008.94;;;2.72;66.85
57668;BME280;43499;52.366;12.912;2024-03-08T01:35:45;102007.69;;;2.75;66.72
57668;BME280;43499;52.366;12.912;2024-03-08T01:36:46;102002.38;;;2.81;66.61
57668;BME280;43499;52.366;12.912;2024-03-08T01:37:47;102007.75;;;2.83;66.88
57668;BME280;43499;52.366;12.912;2024-03-08T01:38:50;102007.81;;;2.70;66.49
57668;BME280;43499;52.366;12.912;2024-03-08T01:39:51;102000.44;;;2.73;66.79
57668;BME280;43499;52.366;12.912;2024-03-08T01:40:52;101999.69;;;2.74;67.15
57668;BME280;43499;52.366;12.912;2024-03-08T01:41:53;101960.72;;;2.54;66.75
57668;BME280;43499;52.366;12.912;2024-03-08T01:42:54;102000.13;;;2.64;67.25
57668;BME280;43499;52.366;12.912;2024-03-08T01:43:55;102005.75;;;2.67;67.47
57668;BME280;43499;52.366;12.912;2024-03-08T01:44:56;101993.44;;;2.79;67.29
57668;BME280;43499;52.366;12.912;2024-03-08T01:45:57;101989.69;;;2.77;66.93
57668;BME280;43499;52.366;12.912;2024-03-08T01:47:00;101991.78;;;2.80;67.03
57668;BME280;43499;52.366;12.912;2024-03-08T01:48:02;101989.50;;;2.75;67.15
57668;BME280;43499;52.366;12.912;2024-03-08T01:49:02;101984.56;;;2.64;67.29
57668;BME280;43499;52.366;12.912;2024-03-08T01:50:03;101982.56;;;2.69;67.28
57668;BME280;43499;52.366;12.912;2024-03-08T01:51:06;101989.91;;;2.78;66.69
57668;BME280;43499;52.366;12.912;2024-03-08T01:52:07;101974.66;;;2.74;67.08
57668;BME280;43499;52.366;12.912;2024-03-08T01:53:08;101983.28;;;2.81;67.11
57668;BME280;43499;52.366;12.912;2024-03-08T01:54:10;101981.19;;;2.78;66.95
57668;BME280;43499;52.366;12.912;2024-03-08T01:55:13;101974.47;;;2.73;67.12
57668;BME280;43499;52.366;12.912;2024-03-08T01:56:17;101973.41;;;2.78;66.98
57668;BME280;43499;52.366;12.912;2024-03-08T01:57:19;101946.34;;;2.63;67.16
57668;BME280;43499;52.366;12.912;2024-03-08T01:58:20;101977.47;;;2.76;66.76
57668;BME280;43499;52.366;12.912;2024-03-08T01:59:22;101970.66;;;2.64;67.62
57668;BME280;43499;52.366;12.912;2024-03-08T02:00:23;101976.66;;;2.70;67.52
57668;BME280;43499;52.366;12.912;2024-03-08T02:01:26;101978.31;;;2.69;67.51
57668;BME280;43499;52.366;12.912;2024-03-08T02:02:28;101974.59;;;2.67;67.83
57668;BME280;43499;52.366;12.912;2024-03-08T02:03:29;101977.59;;;2.70;67.91
57668;BME280;43499;52.366;12.912;2024-03-08T02:04:32;101980.44;;;2.79;68.06
57668;BME280;43499;52.366;12.912;2024-03-08T02:05:33;101970.06;;;2.79;67.95
57668;BME280;43499;52.366;12.912;2024-03-08T02:06:35;101973.81;;;2.81;68.05
57668;BME280;43499;52.366;12.912;2024-03-08T02:07:35;101973.16;;;2.89;67.64
57668;BME280;43499;52.366;12.912;2024-03-08T02:08:37;101968.78;;;2.96;67.01
57668;BME280;43499;52.366;12.912;2024-03-08T02:09:38;101971.28;;;2.88;67.48
57668;BME280;43499;52.366;12.912;2024-03-08T02:10:40;101971.88;;;2.73;67.70
57668;BME280;43499;52.366;12.912;2024-03-08T02:11:42;101969.69;;;2.76;67.94
57668;BME280;43499;52.366;12.912;2024-03-08T02:12:43;101972.66;;;2.79;68.04
57668;BME280;43499;52.366;12.912;2024-03-08T02:13:44;101966.56;;;2.78;67.42
57668;BME280;43499;52.366;12.912;2024-03-08T02:14:45;101965.81;;;2.80;67.69
57668;BME280;43499;52.366;12.912;2024-03-08T02:15:53;101966.00;;;2.81;67.54
57668;BME280;43499;52.366;12.912;2024-03-08T02:16:54;101964.97;;;2.86;67.22
57668;BME280;43499;52.366;12.912;2024-03-08T02:17:55;101956.91;;;2.77;67.40
57668;BME280;43499;52.366;12.912;2024-03-08T02:18:55;101957.69;;;2.84;67.38
57668;BME280;43499;52.366;12.912;2024-03-08T02:19:56;101956.03;;;2.84;67.78
57668;BME280;43499;52.366;12.912;2024-03-08T02:20:58;101961.53;;;2.93;67.57
57668;BME280;43499;52.366;12.912;2024-03-08T02:21:59;101951.44;;;2.89;67.68
57668;BME280;43499;52.366;12.912;2024-03-08T02:23:01;101960.28;;;2.84;67.84
57668;BME280;43499;52.366;12.912;2024-03-08T02:24:02;101956.59;;;2.82;68.02
57668;BME280;43499;52.366;12.912;2024-03-08T02:25:03;101964.44;;;2.89;68.00
57668;BME280;43499;52.366;12.912;2024-03-08T02:26:06;101959.38;;;2.83;68.04
57668;BME280;43499;52.366;12.912;2024-03-08T02:27:08;101958.53;;;2.77;68.00
57668;BME280;43499;52.366;12.912;2024-03-08T02:28:09;101964.75;;;2.85;67.88
57668;BME280;43499;52.366;12.912;2024-03-08T02:29:10;101956.22;;;2.86;67.92
57668;BME280;43499;52.366;12.912;2024-03-08T02:30:11;101962.94;;;2.71;67.90
57668;BME280;43499;52.366;12.912;2024-03-08T02:31:13;101955.44;;;2.80;68.29
57668;BME280;43499;52.366;12.912;2024-03-08T02:32:14;101954.59;;;2.86;68.07
57668;BME280;43499;52.366;12.912;2024-03-08T02:33:15;101959.97;;;2.88;68.30
57668;BME280;43499;52.366;12.912;2024-03-08T02:34:18;101956.63;;;2.89;68.05
57668;BME280;43499;52.366;12.912;2024-03-08T02:35:20;101955.31;;;2.85;67.88
57668;BME280;43499;52.366;12.912;2024-03-08T02:36:21;101957.31;;;2.81;68.18
57668;BME280;43499;52.366;12.912;2024-03-08T02:37:22;101956.59;;;2.69;68.47
57668;BME280;43499;52.366;12.912;2024-03-08T02:38:23;101955.16;;;2.71;68.64
57668;BME280;43499;52.366;12.912;2024-03-08T02:39:24;101951.28;;;2.74;68.81
57668;BME280;43499;52.366;12.912;2024-03-08T02:40:26;101960.22;;;2.76;68.90
57668;BME280;43499;52.366;12.912;2024-03-08T02:41:27;101920.69;;;2.59;68.47
57668;BME280;43499;52.366;12.912;2024-03-08T02:42:28;101956.97;;;2.85;68.39
57668;BME280;43499;52.366;12.912;2024-03-08T02:43:29;101960.28;;;2.84;68.28
57668;BME280;43499;52.366;12.912;2024-03-08T02:44:30;101962.69;;;2.82;68.38
57668;BME280;43499;52.366;12.912;2024-03-08T02:45:31;101960.94;;;2.75;68.26
57668;BME280;43499;52.366;12.912;2024-03-08T02:46:31;101950.97;;;2.78;68.73
57668;BME280;43499;52.366;12.912;2024-03-08T02:47:32;101956.91;;;2.77;68.29
57668;BME280;43499;52.366;12.912;2024-03-08T02:48:33;101957.50;;;2.82;68.24
57668;BME280;43499;52.366;12.912;2024-03-08T02:49:34;101955.81;;;2.83;68.32
57668;BME280;43499;52.366;12.912;2024-03-08T02:50:35;101952.13;;;2.81;68.26
57668;BME280;43499;52.366;12.912;2024-03-08T02:51:36;101956.78;;;2.83;67.92
57668;BME280;43499;52.366;12.912;2024-03-08T02:52:37;101955.81;;;2.83;68.09
57668;BME280;43499;52.366;12.912;2024-03-08T02:53:38;101956.59;;;2.82;68.13
57668;BME280;43499;52.366;12.912;2024-03-08T02:54:39;101955.34;;;2.72;67.91
57668;BME280;43499;52.366;12.912;2024-03-08T02:55:41;101950.88;;;2.71;68.01
57668;BME280;43499;52.366;12.912;2024-03-08T02:56:42;101951.00;;;2.66;68.17
57668;BME280;43499;52.366;12.912;2024-03-08T02:57:43;101956.94;;;2.65;68.23
57668;BME280;43499;52.366;12.912;2024-03-08T02:58:44;101952.25;;;2.62;68.71
57668;BME280;43499;52.366;12.912;2024-03-08T02:59:49;101949.47;;;2.60;68.82
57668;BME280;43499;52.366;12.912;2024-03-08T03:00:49;101949.88;;;2.64;68.73
57668;BME280;43499;52.366;12.912;2024-03-08T03:01:50;101948.75;;;2.61;68.62
57668;BME280;43499;52.366;12.912;2024-03-08T03:02:51;101953.53;;;2.12;69.47
57668;BME280;43499;52.366;12.912;2024-03-08T03:03:54;101945.91;;;2.40;69.88
57668;BME280;43499;52.366;12.912;2024-03-08T03:04:55;101952.97;;;2.41;69.46
57668;BME280;43499;52.366;12.912;2024-03-08T03:05:56;101938.06;;;2.53;69.69
57668;BME280;43499;52.366;12.912;2024-03-08T03:06:57;101941.09;;;2.56;69.34
57668;BME280;43499;52.366;12.912;2024-03-08T03:07:58;101949.41;;;2.40;69.82
57668;BME280;43499;52.366;12.912;2024-03-08T03:08:59;101945.44;;;2.50;69.23
57668;BME280;43499;52.366;12.912;2024-03-08T03:10:00;101939.34;;;2.49;69.27
57668;BME280;43499;52.366;12.912;2024-03-08T03:11:01;101941.41;;;2.52;69.22
57668;BME280;43499;52.366;12.912;2024-03-08T03:12:02;101941.81;;;2.42;69.03
57668;BME280;43499;52.366;12.912;2024-03-08T03:13:03;101937.16;;;2.39;69.34
57668;BME280;43499;52.366;12.912;2024-03-08T03:14:05;101935.19;;;2.44;69.41
57668;BME280;43499;52.366;12.912;2024-03-08T03:15:07;101938.00;;;2.45;69.00
57668;BME280;43499;52.366;12.912;2024-03-08T03:16:08;101935.72;;;2.41;69.44
57668;BME280;43499;52.366;12.912;2024-03-08T03:17:10;101926.25;;;2.42;69.36
57668;BME280;43499;52.366;12.912;2024-03-08T03:18:11;101932.81;;;2.45;69.37
57668;BME280;43499;52.366;12.912;2024-03-08T03:19:12;101929.25;;;2.45;69.23
57668;BME280;43499;52.366;12.912;2024-03-08T03:20:13;101930.72;;;2.43;69.20
57668;BME280;43499;52.366;12.912;2024-03-08T03:21:14;101930.53;;;2.41;69.06
57668;BME280;43499;52.366;12.912;2024-03-08T03:22:15;101933.31;;;2.43;69.06
57668;BME280;43499;52.366;12.912;2024-03-08T03:23:16;101935.72;;;2.41;69.17
57668;BME280;43499;52.366;12.912;2024-03-08T03:24:21;101926.00;;;2.33;69.39
57668;BME280;43499;52.366;12.912;2024-03-08T03:25:22;101940.00;;;2.41;69.40
57668;BME280;43499;52.366;12.912;2024-03-08T03:26:29;101930.84;;;2.37;69.20
57668;BME280;43499;52.366;12.912;2024-03-08T03:27:32;101932.94;;;2.40;69.11
57668;BME280;43499;52.366;12.912;2024-03-08T03:28:32;101924.31;;;2.34;69.74
57668;BME280;43499;52.366;12.912;2024-03-08T03:29:33;101928.16;;;2.30;69.41
57668;BME280;43499;52.366;12.912;2024-03-08T03:30:35;101925.25;;;2.34;69.44
57668;BME280;43499;52.366;12.912;2024-03-08T03:31:36;101929.81;;;2.42;69.17
57668;BME280;43499;52.366;12.912;2024-03-08T03:32:37;101930.53;;;2.41;69.60
57668;BME280;43499;52.366;12.912;2024-03-08T03:33:47;101928.69;;;2.27;69.49
57668;BME280;43499;52.366;12.912;2024-03-08T03:34:48;101922.31;;;2.38;69.43
57668;BME280;43499;52.366;12.912;2024-03-08T03:35:49;101918.88;;;2.45;69.73
57668;BME280;43499;52.366;12.912;2024-03-08T03:36:52;101930.16;;;2.25;69.91
57668;BME280;43499;52.366;12.912;2024-03-08T03:37:53;101928.66;;;2.40;69.57
57668;BME280;43499;52.366;12.912;2024-03-08T03:39:09;101930.75;;;2.30;69.96
57668;BME280;43499;52.366;12.912;2024-03-08T03:40:17;101924.19;;;2.39;69.49
57668;BME280;43499;52.366;12.912;2024-03-08T03:41:19;101923.50;;;2.27;69.99
57668;BME280;43499;52.366;12.912;2024-03-08T03:42:20;101927.31;;;2.37;69.92
57668;BME280;43499;52.366;12.912;2024-03-08T03:43:21;101925.03;;;2.33;69.36
57668;BME280;43499;52.366;12.912;2024-03-08T03:44:22;101924.72;;;2.37;69.24
57668;BME280;43499;52.366;12.912;2024-03-08T03:45:24;101926.19;;;2.35;69.48
57668;BME280;43499;52.366;12.912;2024-03-08T03:46:25;101920.69;;;2.39;69.24
57668;BME280;43499;52.366;12.912;2024-03-08T03:47:27;101925.75;;;2.31;69.44
57668;BME280;43499;52.366;12.912;2024-03-08T03:48:28;101921.09;;;2.29;69.75
57668;BME280;43499;52.366;12.912;2024-03-08T03:49:29;101929.53;;;2.21;69.98
57668;BME280;43499;52.366;12.912;2024-03-08T03:50:30;101937.09;;;2.32;69.50
57668;BME280;43499;52.366;12.912;2024-03-08T03:51:31;101921.09;;;2.29;69.65
57668;BME280;43499;52.366;12.912;2024-03-08T03:52:32;101931.06;;;2.26;69.23
57668;BME280;43499;52.366;12.912;2024-03-08T03:53:33;101927.03;;;2.28;69.42
57668;BME280;43499;52.366;12.912;2024-03-08T03:54:33;101919.25;;;2.28;69.42
57668;BME280;43499;52.366;12.912;2024-03-08T03:55:34;101924.66;;;2.29;69.43
57668;BME280;43499;52.366;12.912;2024-03-08T03:56:37;101932.66;;;2.18;70.24
57668;BME280;43499;52.366;12.912;2024-03-08T03:57:39;101929.44;;;2.26;69.77
57668;BME280;43499;52.366;12.912;2024-03-08T03:58:40;101922.84;;;2.36;69.65
57668;BME280;43499;52.366;12.912;2024-03-08T03:59:40;101924.91;;;2.38;69.86
57668;BME280;43499;52.366;12.912;2024-03-08T04:00:41;101923.66;;;2.42;69.39
57668;BME280;43499;52.366;12.912;2024-03-08T04:01:42;101921.41;;;2.38;69.55
57668;BME280;43499;52.366;12.912;2024-03-08T04:02:43;101926.25;;;2.42;69.81
57668;BME280;43499;52.366;12.912;2024-03-08T04:03:45;101929.84;;;2.29;69.76
57668;BME280;43499;52.366;12.912;2024-03-08T04:04:46;101936.13;;;2.31;70.08
57668;BME280;43499;52.366;12.912;2024-03-08T04:05:47;101921.72;;;2.34;69.86
57668;BME280;43499;52.366;12.912;2024-03-08T04:06:48;101921.59;;;2.39;69.87
57668;BME280;43499;52.366;12.912;2024-03-08T04:07:51;101923.47;;;2.40;69.47
57668;BME280;43499;52.366;12.912;2024-03-08T04:08:52;101931.47;;;2.29;69.55
57668;BME280;43499;52.366;12.912;2024-03-08T04:09:53;101922.84;;;2.36;69.29
57668;BME280;43499;52.366;12.912;2024-03-08T04:10:54;101924.78;;;2.24;69.81
57668;BME280;43499;52.366;12.912;2024-03-08T04:11:55;101927.25;;;2.29;69.61
57668;BME280;43499;52.366;12.912;2024-03-08T04:12:57;101925.56;;;2.30;69.65
57668;BME280;43499;52.366;12.912;2024-03-08T04:13:58;101924.72;;;2.37;69.77
57668;BME280;43499;52.366;12.912;2024-03-08T04:14:58;101932.75;;;2.25;70.05
57668;BME280;43499;52.366;12.912;2024-03-08T04:15:59;101926.81;;;2.26;70.04
57668;BME280;43499;52.366;12.912;2024-03-08T04:17:00;101928.41;;;2.19;70.44
57668;BME280;43499;52.366;12.912;2024-03-08T04:18:01;101926.00;;;2.20;70.27
57668;BME280;43499;52.366;12.912;2024-03-08T04:19:02;101926.34;;;2.16;69.99
57668;BME280;43499;52.366;12.912;2024-03-08T04:20:05;101929.19;;;2.25;69.97
57668;BME280;43499;52.366;12.912;2024-03-08T04:21:10;101935.03;;;2.29;69.92
57668;BME280;43499;52.366;12.912;2024-03-08T04:22:11;101927.44;;;2.31;69.87
57668;BME280;43499;52.366;12.912;2024-03-08T04:23:12;101923.59;;;2.35;69.71
57668;BME280;43499;52.366;12.912;2024-03-08T04:24:13;101938.47;;;2.23;69.83
57668;BME280;43499;52.366;12.912;2024-03-08T04:25:14;101921.97;;;2.09;70.04
57668;BME280;43499;52.366;12.912;2024-03-08T04:26:15;101930.06;;;2.18;70.09
57668;BME280;43499;52.366;12.912;2024-03-08T04:27:16;101923.75;;;2.16;69.93
57668;BME280;43499;52.366;12.912;2024-03-08T04:28:17;101926.94;;;2.21;70.42
57668;BME280;43499;52.366;12.912;2024-03-08T04:29:18;101930.88;;;2.24;69.82
57668;BME280;43499;52.366;12.912;2024-03-08T04:30:19;101923.63;;;2.22;70.29
57668;BME280;43499;52.366;12.912;2024-03-08T04:31:21;101927.91;;;2.08;70.00
57668;BME280;43499;52.366;12.912;2024-03-08T04:32:22;101897.19;;;1.98;70.27
57668;BME280;43499;52.366;12.912;2024-03-08T04:33:23;101930.16;;;2.25;70.03
57668;BME280;43499;52.366;12.912;2024-03-08T04:34:24;101929.19;;;2.25;70.08
57668;BME280;43499;52.366;12.912;2024-03-08T04:35:25;101927.78;;;2.14;69.76
57668;BME280;43499;52.366;12.912;2024-03-08T04:36:26;101926.53;;;2.18;70.03
57668;BME280;43499;52.366;12.912;2024-03-08T04:37:27;101926.41;;;2.23;69.96
57668;BME280;43499;52.366;12.912;2024-03-08T04:38:30;101917.25;;;2.33;69.65
57668;BME280;43499;52.366;12.912;2024-03-08T04:39:31;101922.06;;;2.29;69.55
57668;BME280;43499;52.366;12.912;2024-03-08T04:40:32;101923.94;;;2.18;69.78
57668;BME280;43499;52.366;12.912;2024-03-08T04:41:33;101927.47;;;2.05;69.98
57668;BME280;43499;52.366;12.912;2024-03-08T04:42:34;101921.66;;;2.00;70.25
57668;BME280;43499;52.366;12.912;2024-03-08T04:43:37;101922.41;;;2.12;70.32
57668;BME280;43499;52.366;12.912;2024-03-08T04:44:37;101921.56;;;2.06;70.21
57668;BME280;43499;52.366;12.912;2024-03-08T04:45:38;101931.09;;;2.13;70.00
57668;BME280;43499;52.366;12.912;2024-03-08T04:46:40;101927.69;;;2.07;70.32
57668;BME280;43499;52.366;12.912;2024-03-08T04:47:42;101923.00;;;2.04;70.61
57668;BME280;43499;52.366;12.912;2024-03-08T04:48:43;101922.19;;;2.11;70.31
57668;BME280;43499;52.366;12.912;2024-03-08T04:49:44;101926.81;;;2.13;70.44
57668;BME280;43499;52.366;12.912;2024-03-08T04:50:44;101913.66;;;2.12;70.20
57668;BME280;43499;52.366;12.912;2024-03-08T04:51:45;101920.31;;;2.10;70.21
57668;BME280;43499;52.366;12.912;2024-03-08T04:52:46;101923.25;;;2.06;70.43
57668;BME280;43499;52.366;12.912;2024-03-08T04:53:48;101928.19;;;2.04;70.75
57668;BME280;43499;52.366;12.912;2024-03-08T04:54:49;101920.13;;;1.95;70.70
57668;BME280;43499;52.366;12.912;2024-03-08T04:55:50;101924.69;;;2.04;70.62
57668;BME280;43499;52.366;12.912;2024-03-08T04:56:51;101920.44;;;1.91;70.85
57668;BME280;43499;52.366;12.912;2024-03-08T04:57:52;101920.34;;;1.84;71.03
57668;BME280;43499;52.366;12.912;2024-03-08T04:58:53;101919.09;;;1.88;71.09
57668;BME280;43499;52.366;12.912;2024-03-08T04:59:54;101928.75;;;1.89;71.19
57668;BME280;43499;52.366;12.912;2024-03-08T05:00:55;101928.13;;;1.97;70.66
57668;BME280;43499;52.366;12.912;2024-03-08T05:01:56;101923.56;;;1.89;70.92
57668;BME280;43499;52.366;12.912;2024-03-08T05:02:57;101932.78;;;1.87;71.26
57668;BME280;43499;52.366;12.912;2024-03-08T05:03:58;101929.97;;;1.85;71.41
57668;BME280;43499;52.366;12.912;2024-03-08T05:04:59;101930.41;;;1.88;71.16
57668;BME280;43499;52.366;12.912;2024-03-08T05:06:01;101924.38;;;1.95;71.04
57668;BME280;43499;52.366;12.912;2024-03-08T05:07:02;101925.00;;;1.99;70.99
57668;BME280;43499;52.366;12.912;2024-03-08T05:08:03;101921.88;;;2.02;71.22
57668;BME280;43499;52.366;12.912;2024-03-08T05:09:04;101918.28;;;1.94;71.19
57668;BME280;43499;52.366;12.912;2024-03-08T05:10:17;101917.94;;;1.98;71.08
57668;BME280;43499;52.366;12.912;2024-03-08T05:11:18;101915.34;;;1.98;71.31
57668;BME280;43499;52.366;12.912;2024-03-08T05:12:18;101917.13;;;1.92;70.92
57668;BME280;43499;52.366;12.912;2024-03-08T05:13:19;101917.53;;;1.95;70.72
57668;BME280;43499;52.366;12.912;2024-03-08T05:14:20;101915.78;;;1.89;71.32
57668;BME280;43499;52.366;12.912;2024-03-08T05:15:21;101918.28;;;1.94;71.13
57668;BME280;43499;52.366;12.912;2024-03-08T05:16:22;101920.47;;;1.78;71.76
57668;BME280;43499;52.366;12.912;2024-03-08T05:17:23;101912.56;;;1.84;71.79
57668;BME280;43499;52.366;12.912;2024-03-08T05:18:24;101913.69;;;1.86;71.63
57668;BME280;43499;52.366;12.912;2024-03-08T05:19:25;101917.75;;;1.97;71.25
57668;BME280;43499;52.366;12.912;2024-03-08T05:20:26;101907.56;;;1.98;71.50
57668;BME280;43499;52.366;12.912;2024-03-08T05:21:27;101915.47;;;2.06;71.23